Terminal Aerodrome Forecast
Issued by NWS

Home | Current Version | Previous Version | Text Only | Print | Product List | Glossary On
Versions: 1 2 3 4 5 6 7 8 9 10 11 12 13 14 15 16 17 18
155
FTUS46 KSEW 251120
TAFHQM
TAF
KHQM 251120Z 2512/2612 25004KT 5SM BR OVC005
     FM252000 24013G20KT 6SM HZ SCT012
     FM260400 26010KT 5SM BR BKN008
     FM260800 27008KT 5SM BR OVC005=

USA.gov is the U.S. government's official web portal to all federal, state and local government web resources and services.